sensor_id;sensor_type;location;lat;lon;timestamp;P1;durP1;ratioP1;P2;durP2;ratioP2
8737;SDS011;4405;49.272;8.590;2024-01-11T00:00:31;19.60;;;12.77;;
8737;SDS011;4405;49.272;8.590;2024-01-11T00:02:59;22.53;;;13.13;;
8737;SDS011;4405;49.272;8.590;2024-01-11T00:05:25;25.73;;;13.97;;
8737;SDS011;4405;49.272;8.590;2024-01-11T00:07:51;21.93;;;13.63;;
8737;SDS011;4405;49.272;8.590;2024-01-11T00:10:17;26.30;;;14.13;;
8737;SDS011;4405;49.272;8.590;2024-01-11T00:12:45;29.10;;;15.00;;
8737;SDS011;4405;49.272;8.590;2024-01-11T00:15:11;25.90;;;14.37;;
8737;SDS011;4405;49.272;8.590;2024-01-11T00:17:37;26.73;;;14.87;;
8737;SDS011;4405;49.272;8.590;2024-01-11T00:20:05;30.13;;;15.03;;
8737;SDS011;4405;49.272;8.590;2024-01-11T00:22:32;26.23;;;14.17;;
8737;SDS011;4405;49.272;8.590;2024-01-11T00:24:58;26.13;;;14.67;;
8737;SDS011;4405;49.272;8.590;2024-01-11T00:27:24;26.40;;;14.70;;
8737;SDS011;4405;49.272;8.590;2024-01-11T00:29:51;28.00;;;15.13;;
8737;SDS011;4405;49.272;8.590;2024-01-11T00:32:17;23.17;;;13.53;;
8737;SDS011;4405;49.272;8.590;2024-01-11T00:34:43;27.43;;;15.07;;
8737;SDS011;4405;49.272;8.590;2024-01-11T00:37:11;26.73;;;13.77;;
8737;SDS011;4405;49.272;8.590;2024-01-11T00:39:37;26.23;;;14.23;;
8737;SDS011;4405;49.272;8.590;2024-01-11T00:42:03;27.10;;;14.97;;
8737;SDS011;4405;49.272;8.590;2024-01-11T00:44:30;25.33;;;14.83;;
8737;SDS011;4405;49.272;8.590;2024-01-11T00:46:56;27.70;;;14.83;;
8737;SDS011;4405;49.272;8.590;2024-01-11T00:49:22;27.60;;;14.73;;
8737;SDS011;4405;49.272;8.590;2024-01-11T00:51:48;24.60;;;14.43;;
8737;SDS011;4405;49.272;8.590;2024-01-11T00:54:16;30.10;;;14.67;;
8737;SDS011;4405;49.272;8.590;2024-01-11T00:56:42;26.13;;;14.03;;
8737;SDS011;4405;49.272;8.590;2024-01-11T00:59:08;23.63;;;13.93;;
8737;SDS011;4405;49.272;8.590;2024-01-11T01:01:34;24.77;;;13.33;;
8737;SDS011;4405;49.272;8.590;2024-01-11T01:04:01;24.20;;;14.10;;
8737;SDS011;4405;49.272;8.590;2024-01-11T01:06:27;26.07;;;14.17;;
8737;SDS011;4405;49.272;8.590;2024-01-11T01:08:55;22.37;;;13.43;;
8737;SDS011;4405;49.272;8.590;2024-01-11T01:11:22;24.63;;;13.87;;
8737;SDS011;4405;49.272;8.590;2024-01-11T01:13:48;25.97;;;14.47;;
8737;SDS011;4405;49.272;8.590;2024-01-11T01:16:15;25.50;;;13.43;;
8737;SDS011;4405;49.272;8.590;2024-01-11T01:18:42;25.20;;;14.23;;
8737;SDS011;4405;49.272;8.590;2024-01-11T01:21:09;26.70;;;14.23;;
8737;SDS011;4405;49.272;8.590;2024-01-11T01:23:35;26.23;;;13.73;;
8737;SDS011;4405;49.272;8.590;2024-01-11T01:26:01;26.93;;;14.73;;
8737;SDS011;4405;49.272;8.590;2024-01-11T01:28:29;30.30;;;15.07;;
8737;SDS011;4405;49.272;8.590;2024-01-11T01:30:55;31.97;;;16.70;;
8737;SDS011;4405;49.272;8.590;2024-01-11T01:33:21;25.50;;;14.50;;
8737;SDS011;4405;49.272;8.590;2024-01-11T01:35:47;30.10;;;14.93;;
8737;SDS011;4405;49.272;8.590;2024-01-11T01:38:14;27.03;;;14.57;;
8737;SDS011;4405;49.272;8.590;2024-01-11T01:40:39;28.10;;;14.70;;
8737;SDS011;4405;49.272;8.590;2024-01-11T01:43:06;27.40;;;14.63;;
8737;SDS011;4405;49.272;8.590;2024-01-11T01:45:34;25.10;;;13.63;;
8737;SDS011;4405;49.272;8.590;2024-01-11T01:48:00;27.07;;;14.53;;
8737;SDS011;4405;49.272;8.590;2024-01-11T01:50:27;24.80;;;14.37;;
8737;SDS011;4405;49.272;8.590;2024-01-11T01:52:53;25.80;;;14.30;;
8737;SDS011;4405;49.272;8.590;2024-01-11T01:55:20;26.50;;;14.80;;
8737;SDS011;4405;49.272;8.590;2024-01-11T01:57:48;24.60;;;13.60;;
8737;SDS011;4405;49.272;8.590;2024-01-11T02:00:14;27.67;;;15.77;;
8737;SDS011;4405;49.272;8.590;2024-01-11T02:02:42;29.37;;;16.37;;
8737;SDS011;4405;49.272;8.590;2024-01-11T02:05:09;24.83;;;14.23;;
8737;SDS011;4405;49.272;8.590;2024-01-11T02:07:36;24.83;;;13.83;;
8737;SDS011;4405;49.272;8.590;2024-01-11T02:10:03;23.90;;;14.13;;
8737;SDS011;4405;49.272;8.590;2024-01-11T02:12:29;26.47;;;13.77;;
8737;SDS011;4405;49.272;8.590;2024-01-11T02:14:55;26.33;;;14.80;;
8737;SDS011;4405;49.272;8.590;2024-01-11T02:17:22;24.60;;;14.00;;
8737;SDS011;4405;49.272;8.590;2024-01-11T02:19:49;25.07;;;13.40;;
8737;SDS011;4405;49.272;8.590;2024-01-11T02:22:18;27.63;;;14.17;;
8737;SDS011;4405;49.272;8.590;2024-01-11T02:24:47;24.77;;;13.70;;
8737;SDS011;4405;49.272;8.590;2024-01-11T02:27:13;22.87;;;14.20;;
8737;SDS011;4405;49.272;8.590;2024-01-11T02:29:39;31.80;;;14.67;;
8737;SDS011;4405;49.272;8.590;2024-01-11T02:32:06;26.80;;;14.20;;
8737;SDS011;4405;49.272;8.590;2024-01-11T02:34:33;24.40;;;14.33;;
8737;SDS011;4405;49.272;8.590;2024-01-11T02:37:00;21.43;;;12.97;;
8737;SDS011;4405;49.272;8.590;2024-01-11T02:39:26;24.60;;;13.00;;
8737;SDS011;4405;49.272;8.590;2024-01-11T02:41:56;27.40;;;13.67;;
8737;SDS011;4405;49.272;8.590;2024-01-11T02:44:22;22.13;;;12.67;;
8737;SDS011;4405;49.272;8.590;2024-01-11T02:46:48;22.90;;;12.73;;
8737;SDS011;4405;49.272;8.590;2024-01-11T02:49:14;23.87;;;13.00;;
8737;SDS011;4405;49.272;8.590;2024-01-11T02:51:41;25.20;;;12.87;;
8737;SDS011;4405;49.272;8.590;2024-01-11T02:54:07;28.37;;;14.23;;
8737;SDS011;4405;49.272;8.590;2024-01-11T02:56:33;22.33;;;13.03;;
8737;SDS011;4405;49.272;8.590;2024-01-11T02:59:01;24.50;;;13.63;;
8737;SDS011;4405;49.272;8.590;2024-01-11T03:01:27;24.00;;;12.77;;
8737;SDS011;4405;49.272;8.590;2024-01-11T03:03:53;25.67;;;13.53;;
8737;SDS011;4405;49.272;8.590;2024-01-11T03:06:20;26.43;;;13.93;;
8737;SDS011;4405;49.272;8.590;2024-01-11T03:08:47;24.83;;;13.97;;
8737;SDS011;4405;49.272;8.590;2024-01-11T03:11:13;30.27;;;13.40;;
8737;SDS011;4405;49.272;8.590;2024-01-11T03:13:39;22.77;;;13.47;;
8737;SDS011;4405;49.272;8.590;2024-01-11T03:16:07;24.30;;;13.57;;
8737;SDS011;4405;49.272;8.590;2024-01-11T03:18:33;27.20;;;13.03;;
8737;SDS011;4405;49.272;8.590;2024-01-11T03:20:59;25.60;;;12.93;;
8737;SDS011;4405;49.272;8.590;2024-01-11T03:23:26;27.10;;;13.93;;
8737;SDS011;4405;49.272;8.590;2024-01-11T03:25:52;23.40;;;12.67;;
8737;SDS011;4405;49.272;8.590;2024-01-11T03:28:18;25.60;;;12.83;;
8737;SDS011;4405;49.272;8.590;2024-01-11T03:30:44;26.73;;;14.03;;
8737;SDS011;4405;49.272;8.590;2024-01-11T03:33:12;27.20;;;13.90;;
8737;SDS011;4405;49.272;8.590;2024-01-11T03:35:38;26.87;;;13.67;;
8737;SDS011;4405;49.272;8.590;2024-01-11T03:38:05;27.57;;;14.07;;
8737;SDS011;4405;49.272;8.590;2024-01-11T03:40:31;26.50;;;13.83;;
8737;SDS011;4405;49.272;8.590;2024-01-11T03:42:57;25.37;;;13.87;;
8737;SDS011;4405;49.272;8.590;2024-01-11T03:45:25;23.53;;;13.47;;
8737;SDS011;4405;49.272;8.590;2024-01-11T03:47:51;21.93;;;12.53;;
8737;SDS011;4405;49.272;8.590;2024-01-11T03:50:18;25.63;;;13.33;;
8737;SDS011;4405;49.272;8.590;2024-01-11T03:52:45;24.47;;;13.10;;
8737;SDS011;4405;49.272;8.590;2024-01-11T03:55:11;22.47;;;12.47;;
8737;SDS011;4405;49.272;8.590;2024-01-11T03:57:37;26.03;;;13.20;;
8737;SDS011;4405;49.272;8.590;2024-01-11T04:00:04;24.00;;;13.13;;
8737;SDS011;4405;49.272;8.590;2024-01-11T04:02:31;23.13;;;13.37;;
8737;SDS011;4405;49.272;8.590;2024-01-11T04:04:57;25.90;;;13.90;;
8737;SDS011;4405;49.272;8.590;2024-01-11T04:07:25;22.87;;;12.97;;
8737;SDS011;4405;49.272;8.590;2024-01-11T04:09:52;24.87;;;13.53;;
8737;SDS011;4405;49.272;8.590;2024-01-11T04:12:18;22.03;;;12.37;;
8737;SDS011;4405;49.272;8.590;2024-01-11T04:14:44;25.53;;;13.77;;
8737;SDS011;4405;49.272;8.590;2024-01-11T04:17:11;26.53;;;13.90;;
8737;SDS011;4405;49.272;8.590;2024-01-11T04:19:37;26.50;;;14.27;;
8737;SDS011;4405;49.272;8.590;2024-01-11T04:22:03;23.87;;;13.13;;
8737;SDS011;4405;49.272;8.590;2024-01-11T04:24:31;22.43;;;13.43;;
8737;SDS011;4405;49.272;8.590;2024-01-11T04:26:57;24.20;;;12.27;;
8737;SDS011;4405;49.272;8.590;2024-01-11T04:29:23;21.40;;;12.67;;
8737;SDS011;4405;49.272;8.590;2024-01-11T04:31:49;27.97;;;12.53;;
8737;SDS011;4405;49.272;8.590;2024-01-11T04:34:16;23.63;;;13.33;;
8737;SDS011;4405;49.272;8.590;2024-01-11T04:36:42;24.73;;;13.57;;
8737;SDS011;4405;49.272;8.590;2024-01-11T04:39:08;26.63;;;13.33;;
8737;SDS011;4405;49.272;8.590;2024-01-11T04:41:36;24.67;;;13.60;;
8737;SDS011;4405;49.272;8.590;2024-01-11T04:44:03;21.20;;;12.67;;
8737;SDS011;4405;49.272;8.590;2024-01-11T04:46:29;27.77;;;13.60;;
8737;SDS011;4405;49.272;8.590;2024-01-11T04:48:55;26.00;;;13.07;;
8737;SDS011;4405;49.272;8.590;2024-01-11T04:51:21;25.00;;;13.93;;
8737;SDS011;4405;49.272;8.590;2024-01-11T04:53:48;26.03;;;13.13;;
8737;SDS011;4405;49.272;8.590;2024-01-11T04:56:14;26.23;;;13.13;;
8737;SDS011;4405;49.272;8.590;2024-01-11T04:58:43;24.47;;;13.00;;
8737;SDS011;4405;49.272;8.590;2024-01-11T05:01:11;27.27;;;13.70;;
8737;SDS011;4405;49.272;8.590;2024-01-11T05:03:37;24.93;;;12.83;;
8737;SDS011;4405;49.272;8.590;2024-01-11T05:06:04;27.00;;;12.93;;
8737;SDS011;4405;49.272;8.590;2024-01-11T05:08:30;22.57;;;13.10;;
8737;SDS011;4405;49.272;8.590;2024-01-11T05:10:56;22.83;;;12.43;;
8737;SDS011;4405;49.272;8.590;2024-01-11T05:13:22;27.47;;;13.63;;
8737;SDS011;4405;49.272;8.590;2024-01-11T05:15:49;25.93;;;13.90;;
8737;SDS011;4405;49.272;8.590;2024-01-11T05:18:15;21.63;;;12.80;;
8737;SDS011;4405;49.272;8.590;2024-01-11T05:20:41;27.27;;;14.00;;
8737;SDS011;4405;49.272;8.590;2024-01-11T05:23:08;26.53;;;14.47;;
8737;SDS011;4405;49.272;8.590;2024-01-11T05:25:34;40.30;;;19.63;;
8737;SDS011;4405;49.272;8.590;2024-01-11T05:28:00;40.40;;;19.40;;
8737;SDS011;4405;49.272;8.590;2024-01-11T05:30:27;28.13;;;14.27;;
8737;SDS011;4405;49.272;8.590;2024-01-11T05:32:54;26.40;;;13.87;;
8737;SDS011;4405;49.272;8.590;2024-01-11T05:35:21;29.87;;;13.37;;
8737;SDS011;4405;49.272;8.590;2024-01-11T05:37:49;24.13;;;13.23;;
8737;SDS011;4405;49.272;8.590;2024-01-11T05:40:15;25.33;;;13.60;;
8737;SDS011;4405;49.272;8.590;2024-01-11T05:42:41;22.87;;;12.70;;
8737;SDS011;4405;49.272;8.590;2024-01-11T05:45:07;29.63;;;13.57;;
8737;SDS011;4405;49.272;8.590;2024-01-11T05:47:34;24.23;;;13.37;;
8737;SDS011;4405;49.272;8.590;2024-01-11T05:50:01;23.57;;;12.67;;
8737;SDS011;4405;49.272;8.590;2024-01-11T05:52:28;22.40;;;12.27;;
8737;SDS011;4405;49.272;8.590;2024-01-11T05:54:54;23.60;;;12.57;;
8737;SDS011;4405;49.272;8.590;2024-01-11T05:57:20;23.47;;;13.20;;
8737;SDS011;4405;49.272;8.590;2024-01-11T05:59:46;23.90;;;12.37;;
8737;SDS011;4405;49.272;8.590;2024-01-11T06:02:13;23.13;;;12.90;;
8737;SDS011;4405;49.272;8.590;2024-01-11T06:04:39;22.27;;;12.67;;
8737;SDS011;4405;49.272;8.590;2024-01-11T06:07:06;23.40;;;12.13;;
8737;SDS011;4405;49.272;8.590;2024-01-11T06:09:33;24.50;;;12.80;;
8737;SDS011;4405;49.272;8.590;2024-01-11T06:11:59;24.67;;;13.50;;
8737;SDS011;4405;49.272;8.590;2024-01-11T06:14:26;23.03;;;12.67;;
8737;SDS011;4405;49.272;8.590;2024-01-11T06:16:52;21.83;;;12.43;;
8737;SDS011;4405;49.272;8.590;2024-01-11T06:19:18;27.10;;;12.57;;
8737;SDS011;4405;49.272;8.590;2024-01-11T06:21:44;25.27;;;12.97;;
8737;SDS011;4405;49.272;8.590;2024-01-11T06:24:13;22.23;;;13.03;;
8737;SDS011;4405;49.272;8.590;2024-01-11T06:26:39;25.57;;;14.80;;
8737;SDS011;4405;49.272;8.590;2024-01-11T06:29:05;20.63;;;13.03;;
8737;SDS011;4405;49.272;8.590;2024-01-11T06:31:32;29.20;;;13.43;;
8737;SDS011;4405;49.272;8.590;2024-01-11T06:33:58;25.93;;;14.80;;
8737;SDS011;4405;49.272;8.590;2024-01-11T06:36:24;22.20;;;13.10;;
8737;SDS011;4405;49.272;8.590;2024-01-11T06:38:50;24.17;;;13.40;;
8737;SDS011;4405;49.272;8.590;2024-01-11T06:41:18;25.47;;;13.03;;
8737;SDS011;4405;49.272;8.590;2024-01-11T06:43:44;25.70;;;13.83;;
8737;SDS011;4405;49.272;8.590;2024-01-11T06:46:10;26.30;;;13.50;;
8737;SDS011;4405;49.272;8.590;2024-01-11T06:48:37;25.47;;;12.43;;
8737;SDS011;4405;49.272;8.590;2024-01-11T06:51:03;26.57;;;12.67;;
8737;SDS011;4405;49.272;8.590;2024-01-11T06:53:29;24.77;;;12.73;;
8737;SDS011;4405;49.272;8.590;2024-01-11T06:55:55;21.53;;;12.97;;
8737;SDS011;4405;49.272;8.590;2024-01-11T06:58:23;21.03;;;12.17;;
8737;SDS011;4405;49.272;8.590;2024-01-11T07:00:49;25.80;;;13.63;;
8737;SDS011;4405;49.272;8.590;2024-01-11T07:03:16;30.37;;;14.13;;
8737;SDS011;4405;49.272;8.590;2024-01-11T07:05:42;21.93;;;12.90;;
8737;SDS011;4405;49.272;8.590;2024-01-11T07:08:09;67.20;;;27.87;;
8737;SDS011;4405;49.272;8.590;2024-01-11T07:10:35;332.40;;;87.97;;
8737;SDS011;4405;49.272;8.590;2024-01-11T07:13:02;254.47;;;67.20;;
8737;SDS011;4405;49.272;8.590;2024-01-11T07:15:30;62.97;;;22.43;;
8737;SDS011;4405;49.272;8.590;2024-01-11T07:17:57;34.33;;;15.43;;
8737;SDS011;4405;49.272;8.590;2024-01-11T07:20:23;25.13;;;14.13;;
8737;SDS011;4405;49.272;8.590;2024-01-11T07:22:49;27.33;;;14.00;;
8737;SDS011;4405;49.272;8.590;2024-01-11T07:25:15;26.53;;;13.90;;
8737;SDS011;4405;49.272;8.590;2024-01-11T07:27:42;26.17;;;13.10;;
8737;SDS011;4405;49.272;8.590;2024-01-11T07:30:10;27.30;;;14.10;;
8737;SDS011;4405;49.272;8.590;2024-01-11T07:32:38;27.30;;;13.77;;
8737;SDS011;4405;49.272;8.590;2024-01-11T07:35:05;26.53;;;12.83;;
8737;SDS011;4405;49.272;8.590;2024-01-11T07:37:32;26.77;;;13.80;;
8737;SDS011;4405;49.272;8.590;2024-01-11T07:39:58;24.70;;;13.53;;
8737;SDS011;4405;49.272;8.590;2024-01-11T07:42:25;27.40;;;13.50;;
8737;SDS011;4405;49.272;8.590;2024-01-11T07:44:51;27.40;;;14.40;;
8737;SDS011;4405;49.272;8.590;2024-01-11T07:47:17;24.13;;;13.97;;
8737;SDS011;4405;49.272;8.590;2024-01-11T07:49:45;21.83;;;12.73;;
8737;SDS011;4405;49.272;8.590;2024-01-11T07:52:11;25.23;;;13.13;;
8737;SDS011;4405;49.272;8.590;2024-01-11T07:54:37;25.37;;;13.70;;
8737;SDS011;4405;49.272;8.590;2024-01-11T07:57:03;22.50;;;12.37;;
8737;SDS011;4405;49.272;8.590;2024-01-11T07:59:32;23.87;;;14.10;;
8737;SDS011;4405;49.272;8.590;2024-01-11T08:02:00;22.93;;;13.93;;
8737;SDS011;4405;49.272;8.590;2024-01-11T08:04:26;24.33;;;13.87;;
8737;SDS011;4405;49.272;8.590;2024-01-11T08:06:53;26.13;;;13.90;;
8737;SDS011;4405;49.272;8.590;2024-01-11T08:09:20;21.87;;;12.97;;
8737;SDS011;4405;49.272;8.590;2024-01-11T08:11:47;25.97;;;14.30;;
8737;SDS011;4405;49.272;8.590;2024-01-11T08:14:13;30.60;;;14.80;;
8737;SDS011;4405;49.272;8.590;2024-01-11T08:16:40;24.50;;;14.77;;
8737;SDS011;4405;49.272;8.590;2024-01-11T08:19:07;25.90;;;14.47;;
8737;SDS011;4405;49.272;8.590;2024-01-11T08:21:35;25.70;;;14.53;;
8737;SDS011;4405;49.272;8.590;2024-01-11T08:24:02;24.73;;;13.60;;
8737;SDS011;4405;49.272;8.590;2024-01-11T08:26:29;23.67;;;13.57;;
8737;SDS011;4405;49.272;8.590;2024-01-11T08:28:55;26.57;;;14.67;;
8737;SDS011;4405;49.272;8.590;2024-01-11T08:31:22;25.57;;;14.70;;
8737;SDS011;4405;49.272;8.590;2024-01-11T08:33:48;23.93;;;13.60;;
8737;SDS011;4405;49.272;8.590;2024-01-11T08:36:15;26.30;;;13.83;;
8737;SDS011;4405;49.272;8.590;2024-01-11T08:38:41;24.17;;;13.23;;
8737;SDS011;4405;49.272;8.590;2024-01-11T08:41:08;26.23;;;13.57;;
8737;SDS011;4405;49.272;8.590;2024-01-11T08:43:35;26.93;;;14.33;;
8737;SDS011;4405;49.272;8.590;2024-01-11T08:46:01;25.33;;;13.90;;
8737;SDS011;4405;49.272;8.590;2024-01-11T08:48:28;22.50;;;13.83;;
8737;SDS011;4405;49.272;8.590;2024-01-11T08:50:54;27.73;;;15.10;;
8737;SDS011;4405;49.272;8.590;2024-01-11T08:53:20;27.43;;;16.00;;
8737;SDS011;4405;49.272;8.590;2024-01-11T08:55:47;25.77;;;15.93;;
8737;SDS011;4405;49.272;8.590;2024-01-11T08:58:14;27.57;;;16.23;;
8737;SDS011;4405;49.272;8.590;2024-01-11T09:00:40;25.03;;;14.80;;
8737;SDS011;4405;49.272;8.590;2024-01-11T09:03:07;27.67;;;16.33;;
8737;SDS011;4405;49.272;8.590;2024-01-11T09:05:33;30.67;;;17.57;;
8737;SDS011;4405;49.272;8.590;2024-01-11T09:07:59;27.23;;;16.30;;
8737;SDS011;4405;49.272;8.590;2024-01-11T09:10:26;27.80;;;17.10;;
8737;SDS011;4405;49.272;8.590;2024-01-11T09:12:52;27.37;;;17.03;;
8737;SDS011;4405;49.272;8.590;2024-01-11T09:15:20;26.60;;;16.30;;
8737;SDS011;4405;49.272;8.590;2024-01-11T09:17:46;29.93;;;17.30;;
8737;SDS011;4405;49.272;8.590;2024-01-11T09:20:13;30.20;;;17.90;;
8737;SDS011;4405;49.272;8.590;2024-01-11T09:22:39;29.37;;;17.87;;
8737;SDS011;4405;49.272;8.590;2024-01-11T09:25:05;27.30;;;16.37;;
8737;SDS011;4405;49.272;8.590;2024-01-11T09:27:33;29.60;;;17.87;;
8737;SDS011;4405;49.272;8.590;2024-01-11T09:30:00;27.37;;;17.43;;
8737;SDS011;4405;49.272;8.590;2024-01-11T09:32:28;29.90;;;18.03;;
8737;SDS011;4405;49.272;8.590;2024-01-11T09:34:56;30.70;;;17.13;;
8737;SDS011;4405;49.272;8.590;2024-01-11T09:37:22;25.40;;;17.43;;
8737;SDS011;4405;49.272;8.590;2024-01-11T09:39:48;25.77;;;17.77;;
8737;SDS011;4405;49.272;8.590;2024-01-11T09:42:15;26.83;;;17.20;;
8737;SDS011;4405;49.272;8.590;2024-01-11T09:44:42;28.67;;;18.30;;
8737;SDS011;4405;49.272;8.590;2024-01-11T09:47:09;29.70;;;18.70;;
8737;SDS011;4405;49.272;8.590;2024-01-11T09:49:37;27.27;;;18.33;;
8737;SDS011;4405;49.272;8.590;2024-01-11T09:52:04;28.53;;;18.33;;
8737;SDS011;4405;49.272;8.590;2024-01-11T09:54:33;28.70;;;18.17;;
8737;SDS011;4405;49.272;8.590;2024-01-11T09:57:00;30.10;;;18.33;;
8737;SDS011;4405;49.272;8.590;2024-01-11T09:59:28;30.63;;;18.20;;
8737;SDS011;4405;49.272;8.590;2024-01-11T10:01:54;29.53;;;18.37;;
8737;SDS011;4405;49.272;8.590;2024-01-11T10:04:20;33.10;;;19.70;;
8737;SDS011;4405;49.272;8.590;2024-01-11T10:06:48;28.07;;;19.67;;
8737;SDS011;4405;49.272;8.590;2024-01-11T10:09:15;32.70;;;21.10;;
8737;SDS011;4405;49.272;8.590;2024-01-11T10:11:42;32.20;;;20.57;;
8737;SDS011;4405;49.272;8.590;2024-01-11T10:14:10;29.70;;;20.07;;
8737;SDS011;4405;49.272;8.590;2024-01-11T10:16:37;32.10;;;19.47;;
8737;SDS011;4405;49.272;8.590;2024-01-11T10:19:03;29.43;;;19.07;;
8737;SDS011;4405;49.272;8.590;2024-01-11T10:21:29;32.83;;;19.37;;
8737;SDS011;4405;49.272;8.590;2024-01-11T10:23:58;31.40;;;19.63;;
8737;SDS011;4405;49.272;8.590;2024-01-11T10:26:26;31.83;;;19.53;;
8737;SDS011;4405;49.272;8.590;2024-01-11T10:28:52;30.40;;;20.30;;
8737;SDS011;4405;49.272;8.590;2024-01-11T10:31:18;29.20;;;18.47;;
8737;SDS011;4405;49.272;8.590;2024-01-11T10:33:46;32.00;;;20.17;;
8737;SDS011;4405;49.272;8.590;2024-01-11T10:36:12;29.67;;;19.53;;
8737;SDS011;4405;49.272;8.590;2024-01-11T10:38:39;26.87;;;19.00;;
8737;SDS011;4405;49.272;8.590;2024-01-11T10:41:06;27.50;;;19.37;;
8737;SDS011;4405;49.272;8.590;2024-01-11T10:43:33;27.37;;;18.27;;
8737;SDS011;4405;49.272;8.590;2024-01-11T10:46:02;26.07;;;18.00;;
8737;SDS011;4405;49.272;8.590;2024-01-11T10:48:31;30.67;;;19.47;;
8737;SDS011;4405;49.272;8.590;2024-01-11T10:51:00;27.03;;;18.47;;
8737;SDS011;4405;49.272;8.590;2024-01-11T10:53:28;27.93;;;18.63;;
8737;SDS011;4405;49.272;8.590;2024-01-11T10:55:57;26.93;;;18.67;;
8737;SDS011;4405;49.272;8.590;2024-01-11T10:58:26;25.17;;;17.97;;
8737;SDS011;4405;49.272;8.590;2024-01-11T11:00:53;28.53;;;18.27;;
8737;SDS011;4405;49.272;8.590;2024-01-11T11:03:20;28.83;;;18.60;;
8737;SDS011;4405;49.272;8.590;2024-01-11T11:05:48;26.23;;;18.63;;
8737;SDS011;4405;49.272;8.590;2024-01-11T11:08:16;27.40;;;18.50;;
8737;SDS011;4405;49.272;8.590;2024-01-11T11:10:43;30.20;;;20.10;;
8737;SDS011;4405;49.272;8.590;2024-01-11T11:13:12;28.47;;;18.90;;
8737;SDS011;4405;49.272;8.590;2024-01-11T11:15:41;28.90;;;19.77;;
8737;SDS011;4405;49.272;8.590;2024-01-11T11:18:08;29.60;;;19.80;;
8737;SDS011;4405;49.272;8.590;2024-01-11T11:20:35;28.33;;;19.40;;
8737;SDS011;4405;49.272;8.590;2024-01-11T11:23:05;29.87;;;19.63;;
8737;SDS011;4405;49.272;8.590;2024-01-11T11:25:31;27.30;;;19.60;;
8737;SDS011;4405;49.272;8.590;2024-01-11T11:27:58;23.27;;;18.93;;
8737;SDS011;4405;49.272;8.590;2024-01-11T11:30:26;27.23;;;18.90;;
8737;SDS011;4405;49.272;8.590;2024-01-11T11:32:53;26.07;;;19.37;;
8737;SDS011;4405;49.272;8.590;2024-01-11T11:35:22;29.00;;;20.40;;
8737;SDS011;4405;49.272;8.590;2024-01-11T11:37:48;28.40;;;19.93;;
8737;SDS011;4405;49.272;8.590;2024-01-11T11:40:18;26.10;;;18.93;;
8737;SDS011;4405;49.272;8.590;2024-01-11T11:42:47;27.77;;;20.13;;
8737;SDS011;4405;49.272;8.590;2024-01-11T11:45:13;28.90;;;20.33;;
8737;SDS011;4405;49.272;8.590;2024-01-11T11:47:50;30.40;;;20.30;;
8737;SDS011;4405;49.272;8.590;2024-01-11T11:50:18;28.43;;;21.03;;
8737;SDS011;4405;49.272;8.590;2024-01-11T11:52:47;27.20;;;19.67;;
8737;SDS011;4405;49.272;8.590;2024-01-11T11:55:19;26.47;;;20.33;;
8737;SDS011;4405;49.272;8.590;2024-01-11T11:57:45;29.60;;;20.17;;
8737;SDS011;4405;49.272;8.590;2024-01-11T12:00:12;27.97;;;21.13;;
8737;SDS011;4405;49.272;8.590;2024-01-11T12:02:39;26.83;;;19.90;;
8737;SDS011;4405;49.272;8.590;2024-01-11T12:05:06;27.53;;;20.00;;
8737;SDS011;4405;49.272;8.590;2024-01-11T12:07:33;30.10;;;21.20;;
8737;SDS011;4405;49.272;8.590;2024-01-11T12:10:00;28.50;;;20.07;;
8737;SDS011;4405;49.272;8.590;2024-01-11T12:12:26;29.27;;;22.37;;
8737;SDS011;4405;49.272;8.590;2024-01-11T12:14:53;28.40;;;20.90;;
8737;SDS011;4405;49.272;8.590;2024-01-11T12:17:20;34.13;;;22.70;;
8737;SDS011;4405;49.272;8.590;2024-01-11T12:19:46;29.10;;;21.97;;
8737;SDS011;4405;49.272;8.590;2024-01-11T12:22:13;29.03;;;21.70;;
8737;SDS011;4405;49.272;8.590;2024-01-11T12:24:41;29.10;;;21.80;;
8737;SDS011;4405;49.272;8.590;2024-01-11T12:27:07;29.63;;;22.33;;
8737;SDS011;4405;49.272;8.590;2024-01-11T12:29:33;29.67;;;21.30;;
8737;SDS011;4405;49.272;8.590;2024-01-11T12:32:00;29.00;;;21.53;;
8737;SDS011;4405;49.272;8.590;2024-01-11T12:34:26;31.93;;;23.53;;
8737;SDS011;4405;49.272;8.590;2024-01-11T12:36:54;26.90;;;20.70;;
8737;SDS011;4405;49.272;8.590;2024-01-11T12:39:20;27.63;;;21.33;;
8737;SDS011;4405;49.272;8.590;2024-01-11T12:41:49;28.77;;;21.23;;
8737;SDS011;4405;49.272;8.590;2024-01-11T12:44:15;26.13;;;20.37;;
8737;SDS011;4405;49.272;8.590;2024-01-11T12:46:43;27.97;;;21.43;;
8737;SDS011;4405;49.272;8.590;2024-01-11T12:49:09;28.63;;;21.10;;
8737;SDS011;4405;49.272;8.590;2024-01-11T12:51:35;27.60;;;20.37;;
8737;SDS011;4405;49.272;8.590;2024-01-11T12:54:02;26.50;;;20.97;;
8737;SDS011;4405;49.272;8.590;2024-01-11T12:56:29;28.83;;;21.37;;
8737;SDS011;4405;49.272;8.590;2024-01-11T12:59:06;25.93;;;20.27;;
8737;SDS011;4405;49.272;8.590;2024-01-11T13:01:33;28.27;;;20.83;;
8737;SDS011;4405;49.272;8.590;2024-01-11T13:04:00;29.03;;;20.83;;
8737;SDS011;4405;49.272;8.590;2024-01-11T13:06:27;28.63;;;21.03;;
8737;SDS011;4405;49.272;8.590;2024-01-11T13:08:55;28.70;;;20.90;;
8737;SDS011;4405;49.272;8.590;2024-01-11T13:11:21;29.23;;;21.53;;
8737;SDS011;4405;49.272;8.590;2024-01-11T13:13:49;27.40;;;20.20;;
8737;SDS011;4405;49.272;8.590;2024-01-11T13:16:17;29.37;;;23.07;;
8737;SDS011;4405;49.272;8.590;2024-01-11T13:18:44;27.50;;;20.93;;
8737;SDS011;4405;49.272;8.590;2024-01-11T13:21:10;34.20;;;23.63;;
8737;SDS011;4405;49.272;8.590;2024-01-11T13:23:37;55.20;;;33.57;;
8737;SDS011;4405;49.272;8.590;2024-01-11T13:26:04;32.77;;;24.23;;
8737;SDS011;4405;49.272;8.590;2024-01-11T13:28:31;28.90;;;20.63;;
8737;SDS011;4405;49.272;8.590;2024-01-11T13:30:57;25.43;;;21.03;;
8737;SDS011;4405;49.272;8.590;2024-01-11T13:33:25;25.50;;;20.97;;
8737;SDS011;4405;49.272;8.590;2024-01-11T13:35:52;25.47;;;19.70;;
8737;SDS011;4405;49.272;8.590;2024-01-11T13:38:18;34.43;;;24.43;;
8737;SDS011;4405;49.272;8.590;2024-01-11T13:40:44;34.03;;;25.50;;
8737;SDS011;4405;49.272;8.590;2024-01-11T13:43:11;32.47;;;23.07;;
8737;SDS011;4405;49.272;8.590;2024-01-11T13:45:37;36.40;;;26.57;;
8737;SDS011;4405;49.272;8.590;2024-01-11T13:48:03;36.63;;;26.43;;
8737;SDS011;4405;49.272;8.590;2024-01-11T13:50:31;32.13;;;24.80;;
8737;SDS011;4405;49.272;8.590;2024-01-11T13:52:58;37.13;;;26.40;;
8737;SDS011;4405;49.272;8.590;2024-01-11T13:55:24;35.10;;;24.43;;
8737;SDS011;4405;49.272;8.590;2024-01-11T13:57:51;36.17;;;24.20;;
8737;SDS011;4405;49.272;8.590;2024-01-11T14:00:17;31.07;;;22.60;;
8737;SDS011;4405;49.272;8.590;2024-01-11T14:02:44;35.27;;;24.87;;
8737;SDS011;4405;49.272;8.590;2024-01-11T14:05:10;33.00;;;23.20;;
8737;SDS011;4405;49.272;8.590;2024-01-11T14:07:40;33.47;;;24.70;;
8737;SDS011;4405;49.272;8.590;2024-01-11T14:10:06;36.30;;;24.50;;
8737;SDS011;4405;49.272;8.590;2024-01-11T14:12:33;32.00;;;22.33;;
8737;SDS011;4405;49.272;8.590;2024-01-11T14:15:01;34.33;;;23.83;;
8737;SDS011;4405;49.272;8.590;2024-01-11T14:17:27;35.07;;;23.03;;
8737;SDS011;4405;49.272;8.590;2024-01-11T14:19:53;36.20;;;23.30;;
8737;SDS011;4405;49.272;8.590;2024-01-11T14:22:20;34.43;;;22.47;;
8737;SDS011;4405;49.272;8.590;2024-01-11T14:24:47;31.70;;;21.57;;
8737;SDS011;4405;49.272;8.590;2024-01-11T14:27:13;34.90;;;23.00;;
8737;SDS011;4405;49.272;8.590;2024-01-11T14:29:40;35.13;;;21.87;;
8737;SDS011;4405;49.272;8.590;2024-01-11T14:32:06;34.20;;;22.00;;
8737;SDS011;4405;49.272;8.590;2024-01-11T14:34:32;36.70;;;23.23;;
8737;SDS011;4405;49.272;8.590;2024-01-11T14:36:58;34.57;;;22.70;;
8737;SDS011;4405;49.272;8.590;2024-01-11T14:39:25;35.47;;;22.97;;
8737;SDS011;4405;49.272;8.590;2024-01-11T14:41:52;32.37;;;21.60;;
8737;SDS011;4405;49.272;8.590;2024-01-11T14:44:19;39.57;;;23.93;;